Time;durP1;ratioP1;P1;durP2;ratioP2;P2;SDS_P1;SDS_P2;PMS_P1;PMS_P2;Temp;Humidity;BMP_temperature;BMP_pressure;BME280_temperature;BME280_humidity;BME280_pressure;Samples;Min_cycle;Max_cycle;Signal;HPM_P1;HPM_P2
2022/08/22 00:02:38;;;;;;;6.70;3.20;;;;;;;15.58;90.98;101494.84;5050303;28;20028;-81
2022/08/22 00:05:32;;;;;;;5.65;2.78;;;;;;;15.58;89.80;101500.25;5032573;28;20033;-81
2022/08/22 00:08:10;;;;;;;6.70;3.05;;;;;;;15.57;91.55;101493.22;5050008;28;20025;-81
2022/08/22 00:10:44;;;;;;;12.00;3.00;;;;;;;15.60;91.42;101499.97;5049761;28;20082;-81
2022/08/22 00:13:18;;;;;;;4.30;2.83;;;;;;;15.62;90.70;101499.69;5049947;28;20063;-81
2022/08/22 00:15:57;;;;;;;6.43;3.03;;;;;;;15.66;91.21;101500.75;5049836;28;20416;-81
2022/08/22 00:18:34;;;;;;;10.30;3.20;;;;;;;15.60;91.19;101487.28;5050187;28;20036;-81
2022/08/22 00:21:11;;;;;;;5.63;2.90;;;;;;;15.71;90.96;101500.72;5049470;28;20538;-81
2022/08/22 00:23:52;;;;;;;5.20;3.23;;;;;;;15.65;91.54;101493.75;5049927;28;20282;-81
2022/08/22 00:26:20;;;;;;;6.43;3.22;;;;;;;15.70;91.18;101496.44;5050064;28;20021;-81
2022/08/22 00:28:51;;;;;;;8.65;2.92;;;;;;;15.75;90.98;101501.78;5049588;28;20024;-82
2022/08/22 00:31:39;;;;;;;5.55;3.05;;;;;;;15.75;90.29;101491.81;5049133;28;20021;-82
2022/08/22 00:34:15;;;;;;;6.38;3.00;;;;;;;15.74;91.60;101492.91;5049482;28;20033;-81
2022/08/22 00:36:50;;;;;;;8.07;3.47;;;;;;;15.76;90.97;101487.22;5049432;28;20028;-82
2022/08/22 00:39:32;;;;;;;10.02;3.63;;;;;;;15.73;90.55;101485.06;5049669;28;20488;-81
2022/08/22 00:42:13;;;;;;;7.00;3.90;;;;;;;15.77;91.25;101491.53;5049429;28;20484;-81
2022/08/22 00:45:04;;;;;;;7.32;3.60;;;;;;;15.79;90.54;101499.38;5049412;28;20048;-81
2022/08/22 00:47:48;;;;;;;7.33;3.43;;;;;;;15.76;91.07;101495.31;5032047;28;20033;-81
2022/08/22 00:50:32;;;;;;;11.07;3.80;;;;;;;15.80;91.34;101492.84;5049343;28;20362;-81
2022/08/22 00:53:02;;;;;;;9.10;3.97;;;;;;;15.70;91.61;101486.44;5049540;28;20039;-81
2022/08/22 00:55:45;;;;;;;9.55;4.50;;;;;;;15.73;91.10;101493.16;5049464;28;20029;-81
2022/08/22 00:58:17;;;;;;;9.93;4.30;;;;;;;15.80;91.02;101498.25;5050039;28;20082;-81
2022/08/22 01:00:50;;;;;;;7.95;4.25;;;;;;;15.83;90.97;101503.13;5048724;28;20086;-81
2022/08/22 01:03:43;;;;;;;10.23;3.72;;;;;;;15.84;89.99;101502.03;5050144;28;20087;-81
2022/08/22 01:06:22;;;;;;;11.07;4.63;;;;;;;15.74;90.19;101492.91;5049618;28;20029;-81
2022/08/22 01:09:12;;;;;;;11.70;4.72;;;;;;;15.82;89.78;101506.91;5049332;28;20098;-81
2022/08/22 01:11:57;;;;;;;14.48;4.80;;;;;;;15.77;90.41;101505.03;5048760;28;20029;-81
2022/08/22 01:14:31;;;;;;;12.63;4.90;;;;;;;15.75;90.42;101499.09;5049462;28;20037;-81
2022/08/22 01:17:18;;;;;;;7.13;4.70;;;;;;;15.78;90.30;101497.75;5049101;28;21012;-81
2022/08/22 01:20:28;;;;;;;9.48;4.53;;;;;;;15.76;89.70;101495.31;5049095;28;20039;-81
2022/08/22 01:23:18;;;;;;;8.95;4.82;;;;;;;15.69;89.29;101486.72;5032897;28;20055;-81
2022/08/22 01:26:20;;;;;;;10.05;4.28;;;;;;;15.74;89.68;101500.19;5049241;28;20029;-81
2022/08/22 01:29:19;;;;;;;9.15;4.35;;;;;;;15.54;89.60;101480.25;5048923;28;20040;-81
2022/08/22 01:32:37;;;;;;;7.05;4.50;;;;;;;15.55;90.10;101472.97;5048496;28;20033;-82
2022/08/22 01:35:11;;;;;;;9.10;4.05;;;;;;;15.69;90.95;101492.91;5026201;28;20499;-82
2022/08/22 01:38:01;;;;;;;8.57;4.45;;;;;;;15.71;90.29;101495.31;5052536;28;20472;-81
2022/08/22 01:40:48;;;;;;;9.05;4.40;;;;;;;15.72;90.58;101491.53;5052536;28;20076;-81
2022/08/22 01:43:41;;;;;;;7.00;4.20;;;;;;;15.71;89.81;101487.22;5053047;28;20025;-80
2022/08/22 01:46:28;;;;;;;9.33;4.43;;;;;;;15.69;90.25;101484.81;5052943;28;20275;-81
2022/08/22 01:49:14;;;;;;;9.82;5.05;;;;;;;15.62;90.47;101484.28;5052342;28;20036;-81
2022/08/22 01:51:55;;;;;;;7.60;5.03;;;;;;;15.64;90.79;101486.72;5051959;28;20109;-81
2022/08/22 01:54:28;;;;;;;11.05;5.38;;;;;;;15.63;90.89;101490.50;5052608;28;20151;-81
2022/08/22 01:57:02;;;;;;;13.63;6.25;;;;;;;15.59;91.62;101485.66;5052318;28;20037;-81
2022/08/22 01:59:59;;;;;;;17.10;6.40;;;;;;;15.54;90.18;101479.47;5052378;28;20075;-81
2022/08/22 02:02:43;;;;;;;11.23;6.00;;;;;;;15.50;90.81;101475.69;5051786;28;20049;-81
2022/08/22 02:05:24;;;;;;;12.27;6.57;;;;;;;15.51;90.99;101478.13;5052662;28;20025;-81
2022/08/22 02:08:00;;;;;;;12.40;6.60;;;;;;;15.47;91.42;101476.22;5052287;28;20029;-80
2022/08/22 02:10:44;;;;;;;12.27;6.60;;;;;;;15.49;91.20;101483.00;5051821;28;20037;-81
2022/08/22 02:13:12;;;;;;;15.73;6.80;;;;;;;15.53;91.64;101491.34;5052118;28;20275;-81
2022/08/22 02:15:37;;;;;;;12.55;6.65;;;;;;;15.55;91.64;101479.19;5051900;28;20080;-81
2022/08/22 02:18:05;;;;;;;14.07;6.82;;;;;;;15.55;92.56;101484.56;5052433;28;20052;-81
2022/08/22 02:20:55;;;;;;;9.07;6.40;;;;;;;15.56;92.16;101485.41;5051456;28;20068;-81
2022/08/22 02:23:29;;;;;;;15.63;6.40;;;;;;;15.56;91.68;101480.00;5034199;28;20283;-81
2022/08/22 02:26:02;;;;;;;15.20;6.53;;;;;;;15.52;91.12;101478.94;5051528;28;20087;-81
2022/08/22 02:28:44;;;;;;;11.23;6.00;;;;;;;15.53;91.16;101475.16;5052115;28;20104;-80
2022/08/22 02:31:18;;;;;;;11.52;6.40;;;;;;;15.52;91.62;101473.53;5050927;28;20039;-81
2022/08/22 02:33:44;;;;;;;11.50;6.93;;;;;;;15.51;92.22;101478.13;5051920;28;20029;-80
2022/08/22 02:36:15;;;;;;;15.75;7.20;;;;;;;15.49;92.23;101483.00;5051648;28;20431;-80
2022/08/22 02:38:58;;;;;;;13.63;6.57;;;;;;;15.41;91.32;101460.06;5051633;28;20516;-81
2022/08/22 02:41:35;;;;;;;16.27;7.40;;;;;;;15.41;92.30;101464.66;5051242;28;20103;-81
2022/08/22 02:44:19;;;;;;;14.90;6.90;;;;;;;15.45;91.87;101474.63;5051397;28;20029;-81
2022/08/22 02:46:54;;;;;;;11.30;6.40;;;;;;;15.41;91.78;101464.66;5050300;28;20268;-81
2022/08/22 02:49:41;;;;;;;14.82;6.95;;;;;;;15.42;91.96;101468.97;5051614;28;20029;-80
2022/08/22 02:52:28;;;;;;;12.25;6.85;;;;;;;15.35;92.04;101469.25;5032952;28;20053;-81
2022/08/22 02:55:02;;;;;;;15.15;7.15;;;;;;;15.37;92.78;101477.06;5050248;28;20025;-81
2022/08/22 02:57:42;;;;;;;10.95;7.32;;;;;;;15.35;93.12;101480.06;5050940;28;20083;-81
2022/08/22 03:00:27;;;;;;;13.98;7.00;;;;;;;15.31;92.33;101468.19;5051047;28;20025;-81
2022/08/22 03:03:15;;;;;;;15.13;6.95;;;;;;;15.36;92.90;101472.75;5051218;28;20025;-81
2022/08/22 03:05:43;;;;;;;11.90;7.32;;;;;;;15.37;92.99;101471.66;5051355;28;20094;-80
2022/08/22 03:08:29;;;;;;;12.02;6.97;;;;;;;15.38;92.24;101462.50;5051218;28;20447;-81
2022/08/22 03:11:01;;;;;;;10.63;7.10;;;;;;;15.37;92.72;101459.00;5032546;28;20484;-81
2022/08/22 03:13:51;;;;;;;13.13;7.63;;;;;;;15.38;93.68;101476.00;5050693;28;20287;-80
2022/08/22 03:16:37;;;;;;;12.90;6.93;;;;;;;15.38;93.14;101478.69;5051422;28;20115;-81
2022/08/22 03:19:07;;;;;;;12.07;6.82;;;;;;;15.34;93.20;101472.25;5050464;28;20459;-80
2022/08/22 03:21:46;;;;;;;13.07;7.30;;;;;;;15.26;93.08;101463.59;5050577;28;20388;-81
2022/08/22 03:24:26;;;;;;;12.57;7.40;;;;;;;15.24;93.93;101468.47;5050904;28;20083;-81
2022/08/22 03:27:10;;;;;;;13.25;7.55;;;;;;;15.20;93.29;101464.69;5050926;28;20036;-81
2022/08/22 03:29:43;;;;;;;15.35;7.38;;;;;;;15.16;94.10;101455.53;5032424;28;20025;-81
2022/08/22 03:32:20;;;;;;;15.82;7.95;;;;;;;15.11;94.35;101448.25;5050605;28;20052;-81
2022/08/22 03:35:00;;;;;;;12.73;7.82;;;;;;;15.01;93.85;101433.97;5050227;28;20025;-81
2022/08/22 03:37:35;;;;;;;14.60;7.13;;;;;;;15.05;94.28;101456.63;5050859;28;20028;-81
2022/08/22 03:40:18;;;;;;;12.13;7.30;;;;;;;14.97;94.55;101458.78;5049718;28;20283;-81
2022/08/22 03:43:20;;;;;;;14.93;7.60;;;;;;;14.88;93.86;101444.25;5050324;28;20496;-81
2022/08/22 03:46:24;;;;;;;13.73;8.00;;;;;;;14.78;94.08;101436.97;5050395;28;20025;-80
2022/08/22 03:49:08;;;;;;;13.57;7.85;;;;;;;14.75;95.20;101447.50;5050274;28;20032;-81
2022/08/22 03:51:52;;;;;;;13.13;8.05;;;;;;;14.66;96.15;101441.81;5050028;28;20033;-81
2022/08/22 03:54:23;;;;;;;14.23;7.80;;;;;;;14.55;96.06;101443.69;5050261;28;20021;-81
2022/08/22 03:57:08;;;;;;;14.90;8.43;;;;;;;14.46;97.07;101440.72;5050083;28;20100;-81
2022/08/22 03:59:42;;;;;;;14.70;7.45;;;;;;;14.39;96.62;101441.00;5049893;28;20393;-80
2022/08/22 04:02:29;;;;;;;13.35;7.88;;;;;;;14.32;96.89;101447.72;5050023;28;20040;-81
2022/08/22 04:05:24;;;;;;;13.53;8.23;;;;;;;14.24;96.89;101435.59;5049949;28;20048;-81
2022/08/22 04:08:30;;;;;;;16.40;8.07;;;;;;;14.17;97.46;101445.81;5050203;28;20283;-81
2022/08/22 04:11:10;;;;;;;13.25;8.05;;;;;;;14.06;98.44;101435.00;5049347;28;20028;-81
2022/08/22 04:14:07;;;;;;;15.40;8.50;;;;;;;13.98;98.23;101443.63;5050014;28;20041;-81
2022/08/22 04:16:51;;;;;;;12.20;7.25;;;;;;;13.90;98.41;101446.81;5049966;28;20082;-81
2022/08/22 04:19:52;;;;;;;17.10;7.85;;;;;;;13.78;98.66;101445.19;5050205;28;20080;-82
2022/08/22 04:22:55;;;;;;;12.55;7.50;;;;;;;13.80;98.57;101444.09;5050061;28;20473;-81
2022/08/22 04:25:29;;;;;;;15.32;7.82;;;;;;;13.81;99.26;101456.50;5050249;28;20037;-81
2022/08/22 04:28:08;;;;;;;13.25;7.32;;;;;;;13.78;99.62;101447.88;5049869;28;20021;-81
2022/08/22 04:30:41;;;;;;;12.32;7.75;;;;;;;13.72;100.00;101440.84;5031551;28;20072;-81
2022/08/22 04:33:31;;;;;;;15.50;7.50;;;;;;;13.81;99.85;101459.19;5049838;28;20028;-81
2022/08/22 04:36:12;;;;;;;15.90;8.10;;;;;;;13.85;100.00;101460.28;5049827;28;20299;-81
2022/08/22 04:39:04;;;;;;;16.30;7.90;;;;;;;13.88;100.00;101457.03;5049558;28;20362;-81
2022/08/22 04:41:46;;;;;;;12.65;7.75;;;;;;;13.96;100.00;101459.22;5049576;28;20494;-81
2022/08/22 04:44:20;;;;;;;19.13;8.88;;;;;;;13.99;100.00;101450.63;5049868;28;20037;-81
2022/08/22 04:46:48;;;;;;;20.95;8.63;;;;;;;14.06;100.00;101450.38;5049506;28;20503;-81
2022/08/22 04:49:30;;;;;;;13.02;8.18;;;;;;;14.08;100.00;101446.31;5049787;28;20068;-81
2022/08/22 04:52:14;;;;;;;10.77;7.53;;;;;;;14.14;100.00;101455.25;5049066;28;20029;-81
2022/08/22 04:55:04;;;;;;;13.75;7.80;;;;;;;14.22;100.00;101462.81;5033834;28;20048;-81
2022/08/22 04:57:35;;;;;;;11.48;7.65;;;;;;;14.28;100.00;101463.59;5049945;28;20103;-81
2022/08/22 05:00:05;;;;;;;13.13;7.27;;;;;;;14.39;100.00;101470.66;5048804;28;20037;-81
2022/08/22 05:02:32;;;;;;;11.87;7.17;;;;;;;14.46;100.00;101466.88;5049666;28;20286;-81
2022/08/22 05:05:17;;;;;;;14.10;7.30;;;;;;;14.54;100.00;101479.84;5049237;28;20021;-81
2022/08/22 05:07:51;;;;;;;16.27;7.47;;;;;;;14.60;100.00;101470.69;5049426;28;20389;-81
2022/08/22 05:10:32;;;;;;;13.77;8.00;;;;;;;14.72;99.65;101477.72;5049962;28;20037;-81
2022/08/22 05:13:02;;;;;;;11.82;7.45;;;;;;;14.80;99.48;101475.28;5053243;28;20021;-81
2022/08/22 05:15:33;;;;;;;13.77;7.68;;;;;;;14.90;98.83;101477.16;5053231;28;20120;-81
2022/08/22 05:18:05;;;;;;;10.35;7.47;;;;;;;14.95;98.50;101471.78;5053058;28;20478;-81
2022/08/22 05:20:32;;;;;;;12.98;7.80;;;;;;;15.07;97.80;101478.75;5052590;28;20067;-81
2022/08/22 05:23:06;;;;;;;13.75;7.63;;;;;;;15.13;97.45;101473.06;5053176;28;20021;-82
2022/08/22 05:25:36;;;;;;;12.60;7.90;;;;;;;15.22;97.42;101475.25;5053051;28;20560;-81
2022/08/22 05:28:10;;;;;;;14.03;7.70;;;;;;;15.33;96.94;101481.44;5035354;28;20283;-81
2022/08/22 05:30:37;;;;;;;13.30;8.18;;;;;;;15.44;96.31;101480.31;5052223;28;20070;-81
2022/08/22 05:33:13;;;;;;;15.70;8.52;;;;;;;15.55;96.18;101486.47;5051171;28;20031;-82
2022/08/22 05:35:43;;;;;;;13.57;8.18;;;;;;;15.63;95.44;101477.00;5052567;28;20037;-82
2022/08/22 05:38:14;;;;;;;15.57;8.50;;;;;;;15.75;94.86;101488.28;5053196;28;20035;-81
2022/08/22 05:40:42;;;;;;;16.35;8.45;;;;;;;15.83;95.15;101486.91;5051947;28;20044;-81
2022/08/22 05:43:11;;;;;;;14.32;8.80;;;;;;;15.97;94.63;101492.56;5052921;28;20469;-81
2022/08/22 05:45:39;;;;;;;18.02;8.75;;;;;;;16.01;93.30;101486.31;5052489;28;20044;-82
2022/08/22 05:48:15;;;;;;;20.23;9.70;;;;;;;16.06;93.73;101499.00;5053256;28;20032;-81
2022/08/22 05:50:49;;;;;;;15.77;8.80;;;;;;;16.08;93.18;101487.91;5052100;28;20040;-82
2022/08/22 05:53:16;;;;;;;17.53;8.87;;;;;;;16.09;93.24;101490.31;5035907;28;20771;-82
2022/08/22 05:56:10;;;;;;;12.20;8.43;;;;;;;16.16;92.55;101496.22;5052337;28;20029;-81
2022/08/22 05:58:40;;;;;;;19.52;9.57;;;;;;;16.22;92.33;101491.59;5052715;28;20031;-81
2022/08/22 06:01:53;;;;;;;15.13;8.77;;;;;;;16.28;92.45;101490.50;5052116;28;20033;-82
2022/08/22 06:04:46;;;;;;;13.75;8.73;;;;;;;16.37;91.91;101490.69;5052640;28;20074;-81
2022/08/22 06:07:30;;;;;;;15.95;8.90;;;;;;;16.47;91.51;101493.31;5052661;28;20154;-81
2022/08/22 06:10:07;;;;;;;17.20;8.52;;;;;;;16.65;90.36;101491.03;5051730;28;20024;-81
2022/08/22 06:12:37;;;;;;;22.13;8.90;;;;;;;16.75;89.98;101493.66;5052396;28;20078;-82
2022/08/22 06:15:10;;;;;;;14.70;8.80;;;;;;;16.87;89.95;101490.59;5052499;28;20017;-81
2022/08/22 06:18:00;;;;;;;14.17;8.13;;;;;;;17.00;89.34;101499.16;5034273;28;20332;-82
2022/08/22 06:20:38;;;;;;;13.97;9.40;;;;;;;17.01;89.23;101479.91;5051710;28;20275;-81
2022/08/22 06:23:06;;;;;;;17.27;9.27;;;;;;;17.03;88.53;101491.28;5052182;28;20035;-82
2022/08/22 06:25:34;;;;;;;16.63;9.30;;;;;;;16.98;89.43;101494.03;5052337;28;20013;-82
2022/08/22 06:28:05;;;;;;;18.98;9.10;;;;;;;17.10;88.77;101490.94;5051737;28;20508;-81
2022/08/22 06:30:32;;;;;;;15.07;8.63;;;;;;;17.28;87.71;101500.25;5051418;28;20029;-81
2022/08/22 06:33:05;;;;;;;16.30;8.43;;;;;;;17.37;87.22;101503.94;5051042;28;20072;-82
2022/08/22 06:38:37;;;;;;;15.45;9.30;;;;;;;17.48;87.68;101495.69;5052081;28;20064;-82
2022/08/22 06:41:07;;;;;;;16.42;9.55;;;;;;;17.56;87.37;101500.47;5051856;28;20064;-82
2022/08/22 06:43:40;;;;;;;16.60;8.40;;;;;;;17.68;86.22;101514.44;5051689;28;20032;-82
2022/08/22 06:46:06;;;;;;;17.43;9.33;;;;;;;17.67;86.74;101507.41;5051984;28;20283;-82
2022/08/22 06:48:34;;;;;;;15.90;9.18;;;;;;;17.67;86.77;101504.69;5051892;28;20507;-82
2022/08/22 06:51:00;;;;;;;18.63;10.32;;;;;;;17.74;87.14;101511.66;5050620;28;20032;-82
2022/08/22 06:53:37;;;;;;;16.15;9.55;;;;;;;17.80;87.00;101515.91;5051379;28;20377;-82
2022/08/22 06:56:06;;;;;;;17.25;9.63;;;;;;;17.86;86.19;101517.47;5051343;28;20091;-82
2022/08/22 06:58:47;;;;;;;16.55;9.68;;;;;;;17.87;85.92;101519.09;5051587;28;20021;-82
2022/08/22 07:01:38;;;;;;;15.60;10.48;;;;;;;17.97;86.72;101518.94;5050891;28;20017;-82
2022/08/22 07:04:11;;;;;;;15.87;9.70;;;;;;;18.03;86.25;101530.56;5051325;28;20025;-82
2022/08/22 07:06:49;;;;;;;16.23;10.57;;;;;;;18.07;86.80;101526.19;5017094;28;20353;-81
2022/08/22 07:09:22;;;;;;;18.85;9.60;;;;;;;18.25;84.83;101535.44;5051465;28;20068;-82
2022/08/22 07:11:51;;;;;;;15.45;10.15;;;;;;;18.33;85.29;101533.16;5050259;28;20045;-82
2022/08/22 07:14:28;;;;;;;16.77;9.30;;;;;;;18.44;84.41;101534.63;5051067;28;20017;-82
2022/08/22 07:17:02;;;;;;;14.93;9.80;;;;;;;18.52;83.55;101533.94;5050499;28;20025;-81
2022/08/22 07:19:56;;;;;;;15.38;9.63;;;;;;;18.59;83.97;101530.84;5050899;28;20116;-81
2022/08/22 07:22:29;;;;;;;20.50;11.15;;;;;;;18.52;84.66;101525.81;5032680;28;20404;-82
2022/08/22 07:25:05;;;;;;;17.40;10.57;;;;;;;18.64;83.78;101535.41;5050793;28;20052;-82
2022/08/22 07:27:59;;;;;;;15.82;10.05;;;;;;;18.76;83.68;101538.47;5050854;28;20060;-82
2022/08/22 07:30:37;;;;;;;17.07;10.60;;;;;;;18.80;83.23;101525.94;5050318;28;20032;-82
2022/08/22 07:33:07;;;;;;;16.13;10.37;;;;;;;18.92;82.51;101539.84;5049735;28;20290;-82
2022/08/22 07:35:40;;;;;;;20.98;10.55;;;;;;;19.10;82.18;101529.25;5050643;28;20401;-82
2022/08/22 07:38:17;;;;;;;19.17;10.40;;;;;;;19.31;80.76;101524.25;5051438;28;20021;-82
2022/08/22 07:41:08;;;;;;;15.68;11.07;;;;;;;19.41;80.87;101512.38;5049954;28;20377;-81
2022/08/22 07:43:41;;;;;;;16.33;10.73;;;;;;;19.58;80.39;101519.94;5050234;28;20542;-81
2022/08/22 07:46:35;;;;;;;23.75;9.63;;;;;;;19.92;79.96;101516.00;5050559;28;20041;-82
2022/08/22 07:49:21;;;;;;;16.73;10.52;;;;;;;20.18;78.63;101506.47;5049874;28;20033;-82
2022/08/22 07:51:51;;;;;;;14.43;9.85;;;;;;;20.27;77.17;101512.78;5049504;28;20079;-82
2022/08/22 07:54:26;;;;;;;19.73;10.50;;;;;;;20.24;77.87;101518.88;5049993;28;20071;-82
2022/08/22 07:56:58;;;;;;;19.90;10.97;;;;;;;20.37;78.35;101509.84;5049826;28;20076;-81
2022/08/22 07:59:26;;;;;;;16.83;10.33;;;;;;;20.46;77.10;101519.97;5050095;28;20283;-82
2022/08/22 08:01:55;;;;;;;22.00;10.98;;;;;;;20.52;76.70;101513.31;5049632;28;20029;-82
2022/08/22 08:04:30;;;;;;;16.52;10.93;;;;;;;20.46;77.11;101511.81;5032193;28;20021;-82
2022/08/22 08:07:01;;;;;;;16.77;10.57;;;;;;;20.39;77.01;101521.22;5049706;28;20106;-82
2022/08/22 08:09:31;;;;;;;17.25;10.30;;;;;;;20.16;78.01;101512.25;5049706;28;20073;-82
2022/08/22 08:11:59;;;;;;;17.90;10.57;;;;;;;19.99;78.80;101515.59;5049313;28;20029;-82
2022/08/22 08:14:25;;;;;;;17.38;11.45;;;;;;;19.78;80.40;101499.69;5049917;28;20048;-82
2022/08/22 08:16:53;;;;;;;20.80;11.70;;;;;;;19.82;80.53;101506.13;5049656;28;20729;-82
2022/08/22 08:19:20;;;;;;;22.08;11.52;;;;;;;19.93;81.07;101487.72;5049610;28;20041;-82
2022/08/22 08:21:55;;;;;;;19.27;10.97;;;;;;;20.14;79.58;101492.69;5049081;28;20021;-82
2022/08/22 08:24:26;;;;;;;17.53;10.67;;;;;;;20.31;78.89;101494.75;5032014;28;20284;-82
2022/08/22 08:29:49;;;;;;;22.98;11.07;;;;;;;20.73;77.33;101491.81;5049147;28;20043;-82
2022/08/22 08:32:15;;;;;;;16.42;9.82;;;;;;;20.92;76.53;101486.22;5049751;28;20111;-82
2022/08/22 08:34:42;;;;;;;18.92;10.00;;;;;;;21.03;75.29;101490.25;5049512;28;20123;-82
2022/08/22 08:37:37;;;;;;;17.95;9.18;;;;;;;21.29;76.19;101494.22;5049564;28;20063;-82
2022/08/22 08:40:15;;;;;;;16.77;9.80;;;;;;;21.44;74.27;101496.53;5049274;28;20437;-82
2022/08/22 08:46:28;;;;;;;17.23;9.35;;;;;;;21.77;70.72;101490.72;5011376;28;20033;-82
2022/08/22 08:49:22;;;;;;;18.50;10.07;;;;;;;21.95;72.14;101493.47;5011380;28;20033;-82
2022/08/22 08:52:06;;;;;;;19.77;10.07;;;;;;;22.12;70.83;101498.13;5045812;28;20084;-82
2022/08/22 08:54:54;;;;;;;16.20;8.60;;;;;;;22.51;69.92;101501.81;5055912;28;20021;-82
2022/08/22 08:57:38;;;;;;;14.32;7.75;;;;;;;22.91;67.62;101502.72;5053529;28;20040;-82
2022/08/22 09:00:12;;;;;;;15.07;7.30;;;;;;;23.28;65.27;101492.16;5052955;28;20403;-82
2022/08/22 09:02:51;;;;;;;17.45;8.00;;;;;;;23.67;62.44;101490.19;5035211;28;20055;-82
2022/08/22 09:05:41;;;;;;;15.88;7.15;;;;;;;24.13;60.52;101484.09;5053523;28;20029;-82
2022/08/22 09:08:23;;;;;;;14.43;7.03;;;;;;;24.35;60.59;101488.41;5053250;28;20485;-82
2022/08/22 09:14:20;;;;;;;14.52;6.57;;;;;;;24.50;55.75;101490.53;5015358;28;20037;-83
2022/08/22 09:17:03;;;;;;;16.10;6.47;;;;;;;24.33;57.45;101480.53;5052848;28;20522;-83
2022/08/22 09:19:59;;;;;;;16.00;5.90;;;;;;;24.52;58.16;101487.44;5052893;28;20037;-83
2022/08/22 09:22:43;;;;;;;19.80;6.28;;;;;;;24.60;55.40;101475.59;5052085;28;20041;-83
2022/08/22 09:25:22;;;;;;;11.80;5.40;;;;;;;24.87;55.17;101480.81;5052999;28;20057;-83
2022/08/22 09:27:59;;;;;;;13.43;5.70;;;;;;;25.03;55.60;101484.50;5052849;28;20025;-83
2022/08/22 09:30:44;;;;;;;14.23;5.28;;;;;;;25.05;52.47;101475.91;5052703;28;20047;-83
2022/08/22 09:33:18;;;;;;;15.32;5.20;;;;;;;25.02;51.99;101471.94;5052862;28;20031;-83
2022/08/22 09:36:15;;;;;;;13.53;5.40;;;;;;;25.03;52.18;101484.50;5052578;28;20029;-82
2022/08/22 09:39:13;;;;;;;12.77;5.20;;;;;;;25.15;52.76;101477.41;5022895;28;20763;-82
2022/08/22 09:41:44;;;;;;;13.77;5.03;;;;;;;25.18;53.26;101484.97;5052158;28;20123;-82
2022/08/22 09:44:19;;;;;;;10.75;5.97;;;;;;;25.00;51.66;101478.91;5052927;28;20025;-82
2022/08/22 09:46:57;;;;;;;13.38;5.03;;;;;;;25.18;53.56;101485.78;5052849;28;20079;-82
2022/08/22 09:49:45;;;;;;;12.13;4.97;;;;;;;25.23;52.51;101482.00;5052775;28;20079;-82
2022/08/22 09:52:49;;;;;;;11.70;5.10;;;;;;;25.35;53.34;101479.25;5052365;28;20051;-82
2022/08/22 09:55:44;;;;;;;12.32;5.18;;;;;;;25.19;51.77;101476.41;5051910;28;20033;-82
2022/08/22 09:58:35;;;;;;;13.00;5.30;;;;;;;25.18;52.00;101477.53;5052529;28;20048;-82
2022/08/22 10:01:24;;;;;;;10.95;4.25;;;;;;;25.39;52.13;101474.69;5051427;28;20036;-82
2022/08/22 10:04:15;;;;;;;13.47;5.10;;;;;;;25.70;50.63;101473.28;5052592;28;20049;-82
2022/08/22 10:06:59;;;;;;;11.43;5.20;;;;;;;25.78;49.00;101474.28;5052073;28;20279;-82
2022/08/22 10:09:33;;;;;;;13.35;4.60;;;;;;;25.90;49.56;101469.94;5052887;28;20033;-82
2022/08/22 10:12:10;;;;;;;11.80;5.05;;;;;;;26.09;49.23;101461.88;5052382;28;20029;-83
2022/08/22 10:14:48;;;;;;;8.65;3.78;;;;;;;25.95;47.91;101462.25;5018573;28;20079;-82
2022/08/22 10:17:19;;;;;;;7.63;3.33;;;;;;;25.69;47.25;101459.91;5053163;28;20110;-82
2022/08/22 10:19:49;;;;;;;10.82;3.80;;;;;;;25.57;45.92;101446.22;5053123;28;20135;-82
2022/08/22 10:22:33;;;;;;;10.82;3.63;;;;;;;25.62;47.62;101451.47;5059178;28;20385;-81
2022/08/22 10:25:33;;;;;;;11.10;3.80;;;;;;;25.74;47.83;101445.97;5036115;28;20056;-82
2022/08/22 10:28:16;;;;;;;9.43;4.00;;;;;;;25.69;46.40;101441.50;5051914;28;20021;-82
2022/08/22 10:31:09;;;;;;;9.50;3.57;;;;;;;25.81;47.65;101451.66;5051168;28;20561;-83
2022/08/22 10:33:59;;;;;;;10.33;3.90;;;;;;;26.12;46.37;101438.41;5051491;28;20283;-82
2022/08/22 10:36:36;;;;;;;9.98;3.50;;;;;;;26.29;45.53;101449.09;5051801;28;20037;-82
2022/08/22 10:39:05;;;;;;;8.40;3.65;;;;;;;26.42;44.79;101449.84;5051478;28;20043;-82
2022/08/22 10:42:15;;;;;;;9.80;3.60;;;;;;;26.71;44.25;101447.81;5051438;28;20025;-82
2022/08/22 10:45:04;;;;;;;11.15;4.38;;;;;;;26.67;43.34;101446.91;5036724;28;20033;-82
2022/08/22 10:47:56;;;;;;;11.25;3.63;;;;;;;26.75;44.69;101434.97;5051469;28;20116;-82
2022/08/22 10:50:29;;;;;;;14.63;3.35;;;;;;;26.54;43.36;101432.47;5050534;28;20036;-82
2022/08/22 10:55:48;;;;;;;10.77;3.55;;;;;;;25.94;42.92;101415.91;5051405;28;20051;-82
2022/08/22 10:58:21;;;;;;;9.13;3.00;;;;;;;25.95;44.55;101414.78;5033477;28;20104;-82
2022/08/22 11:00:54;;;;;;;10.30;2.73;;;;;;;26.01;44.42;101421.63;5050716;28;20271;-82
2022/08/22 11:03:45;;;;;;;6.00;2.50;;;;;;;26.07;42.60;101425.72;5051373;28;20112;-82
2022/08/22 11:06:27;;;;;;;10.40;3.20;;;;;;;26.31;43.77;101429.50;5051517;28;20175;-82
2022/08/22 11:09:12;;;;;;;7.78;2.88;;;;;;;26.36;42.44;101421.00;5049831;28;20051;-82
2022/08/22 11:11:37;;;;;;;9.57;2.78;;;;;;;26.36;40.27;101425.72;5032538;28;20025;-82
2022/08/22 11:14:20;;;;;;;8.07;2.67;;;;;;;26.52;41.34;101428.47;5051104;28;20503;-82
2022/08/22 11:17:08;;;;;;;8.57;2.78;;;;;;;26.73;40.96;101429.03;5050927;28;20029;-82
2022/08/22 11:19:51;;;;;;;7.80;2.55;;;;;;;27.16;38.30;101432.03;5051583;28;20028;-82
2022/08/22 11:22:32;;;;;;;7.15;2.40;;;;;;;27.51;39.06;101430.47;5051329;28;20032;-82
2022/08/22 11:25:10;;;;;;;6.78;2.15;;;;;;;27.93;38.23;101424.28;5050966;28;20025;-82
2022/08/22 11:27:59;;;;;;;7.22;2.70;;;;;;;28.17;37.10;101424.34;5051531;28;20033;-82
2022/08/22 11:30:35;;;;;;;8.63;2.50;;;;;;;28.51;37.04;101428.09;5050900;28;20033;-82
2022/08/22 11:33:31;;;;;;;6.93;2.70;;;;;;;28.89;37.07;101419.28;5049007;28;20283;-83
2022/08/22 11:36:28;;;;;;;9.63;2.70;;;;;;;29.17;36.66;101421.69;5050391;28;20029;-82
2022/08/22 11:39:08;;;;;;;7.05;2.67;;;;;;;29.37;37.06;101414.13;5050719;28;20456;-82
2022/08/22 11:41:52;;;;;;;10.90;3.05;;;;;;;29.44;36.91;101416.94;5050443;28;20029;-82
2022/08/22 11:44:28;;;;;;;9.15;2.60;;;;;;;29.40;36.33;101409.81;5051150;28;20029;-82
2022/08/22 11:46:56;;;;;;;7.28;2.90;;;;;;;29.32;34.07;101409.66;5050544;28;20738;-82
2022/08/22 11:49:43;;;;;;;7.75;2.70;;;;;;;29.34;36.49;101406.53;5050793;28;20056;-82
2022/08/22 11:52:49;;;;;;;7.32;2.60;;;;;;;29.35;35.49;101407.34;5050281;28;20098;-81
2022/08/22 11:55:40;;;;;;;9.25;2.95;;;;;;;29.24;36.47;101399.72;5008822;28;20033;-82
2022/08/22 11:58:24;;;;;;;5.40;2.47;;;;;;;29.36;36.13;101401.47;5047407;28;20486;-82
2022/08/22 12:01:01;;;;;;;11.40;2.40;;;;;;;29.57;36.06;101397.41;5049997;28;20301;-82
2022/08/22 12:03:46;;;;;;;9.07;2.90;;;;;;;29.38;36.63;101399.16;5050358;28;20029;-81
2022/08/22 12:06:37;;;;;;;9.27;2.97;;;;;;;29.61;37.15;101401.81;5050614;28;20028;-82
2022/08/22 12:09:39;;;;;;;9.82;2.97;;;;;;;29.83;36.45;101404.00;5050370;28;20404;-82
2022/08/22 12:12:26;;;;;;;9.07;3.00;;;;;;;29.86;36.95;101403.25;5049966;28;20040;-82
2022/08/22 12:15:02;;;;;;;8.18;2.70;;;;;;;29.67;36.25;101398.72;5049776;28;20086;-82
2022/08/22 12:18:04;;;;;;;10.85;2.80;;;;;;;29.85;36.63;101409.94;5049967;28;20025;-82
2022/08/22 12:20:54;;;;;;;7.97;3.15;;;;;;;29.75;35.99;101398.44;5049414;28;20021;-82
2022/08/22 12:23:53;;;;;;;7.82;2.80;;;;;;;29.55;36.25;101399.75;5050005;28;20024;-82
2022/08/22 12:26:51;;;;;;;7.63;2.37;;;;;;;29.43;36.90;101398.03;5050336;28;20025;-82
2022/08/22 12:29:41;;;;;;;9.23;2.83;;;;;;;29.48;35.92;101397.69;5049575;28;20318;-82
2022/08/22 12:32:47;;;;;;;8.60;3.38;;;;;;;29.40;37.06;101399.53;5049782;28;20039;-82
2022/08/22 12:35:26;;;;;;;6.78;3.22;;;;;;;29.56;36.45;101393.06;5049575;28;20029;-82